Time;durP1;ratioP1;P1;durP2;ratioP2;P2;SDS_P1;SDS_P2;PMS_P1;PMS_P2;Temp;Humidity;BMP_temperature;BMP_pressure;BME280_temperature;BME280_humidity;BME280_pressure;Samples;Min_cycle;Max_cycle;Signal;HPM_P1;HPM_P2
2023/01/09 00:02:11;;;;;;;1.27;0.95;;;8.70;99.90;;;;;;6200683;28;20576;-78
2023/01/09 00:05:14;;;;;;;3.33;1.25;;;8.80;99.90;;;;;;6201388;28;20053;-76
2023/01/09 00:08:17;;;;;;;5.85;0.88;;;8.80;99.90;;;;;;6170414;28;20471;-77
2023/01/09 00:11:19;;;;;;;1.38;0.93;;;8.80;99.90;;;;;;6197278;28;20527;-78
2023/01/09 00:14:22;;;;;;;0.70;0.70;;;8.80;99.90;;;;;;6199777;28;20057;-77
2023/01/09 00:17:24;;;;;;;0.95;0.90;;;8.90;99.90;;;;;;6199900;28;20125;-77
2023/01/09 00:20:26;;;;;;;0.95;0.80;;;8.90;99.90;;;;;;6199768;28;20046;-77
2023/01/09 00:23:28;;;;;;;1.00;0.65;;;8.90;99.90;;;;;;6176817;28;20409;-77
2023/01/09 00:26:29;;;;;;;2.50;0.80;;;8.90;99.90;;;;;;6176722;28;20055;-76
2023/01/09 00:29:32;;;;;;;0.63;0.50;;;8.90;99.90;;;;;;6175520;28;20043;-76
2023/01/09 00:32:34;;;;;;;0.68;0.68;;;9.00;99.90;;;;;;6175948;28;20047;-77
2023/01/09 00:35:36;;;;;;;0.98;0.70;;;9.00;99.90;;;;;;6176036;28;20086;-77
2023/01/09 00:38:38;;;;;;;0.57;0.40;;;9.00;99.90;;;;;;6174770;28;20421;-76
2023/01/09 00:41:42;;;;;;;0.85;0.85;;;9.00;99.90;;;;;;6175879;28;20501;-76
2023/01/09 00:44:49;;;;;;;2.22;0.77;;;9.00;99.90;;;;;;6175759;28;20050;-76
2023/01/09 00:47:52;;;;;;;0.60;0.60;;;9.00;99.90;;;;;;6175511;28;20057;-76
2023/01/09 00:50:57;;;;;;;0.45;0.45;;;9.10;99.90;;;;;;6175727;28;20047;-77
2023/01/09 00:54:01;;;;;;;1.10;0.70;;;9.10;99.90;;;;;;6176000;28;20505;-77
2023/01/09 00:57:03;;;;;;;1.00;0.90;;;9.10;99.90;;;;;;6175913;28;20043;-77
2023/01/09 01:00:08;;;;;;;0.90;0.63;;;9.10;99.90;;;;;;6175385;28;20042;-77
2023/01/09 01:03:09;;;;;;;1.50;0.60;;;9.10;99.90;;;;;;6176648;28;20047;-77
2023/01/09 01:09:31;;;;;;;0.77;0.77;;;9.10;99.90;;;;;;6174376;28;20042;-77
2023/01/09 01:12:32;;;;;;;0.57;0.55;;;9.00;99.90;;;;;;6175595;28;20524;-77
2023/01/09 01:15:38;;;;;;;0.40;0.40;;;9.00;99.90;;;;;;6175622;28;20058;-77
2023/01/09 01:18:40;;;;;;;0.60;0.57;;;8.90;99.90;;;;;;6174935;28;20058;-77
2023/01/09 01:21:42;;;;;;;0.93;0.60;;;8.90;99.90;;;;;;6175268;28;20043;-77
2023/01/09 01:24:44;;;;;;;3.00;0.73;;;8.90;99.90;;;;;;6173797;28;20050;-77
2023/01/09 01:27:46;;;;;;;0.82;0.68;;;8.80;99.90;;;;;;6197557;28;20058;-77
2023/01/09 01:30:49;;;;;;;0.65;0.50;;;8.80;99.90;;;;;;6198335;28;20042;-77
2023/01/09 01:33:50;;;;;;;0.50;0.50;;;8.80;99.90;;;;;;6198990;28;20058;-77
2023/01/09 01:36:52;;;;;;;0.40;0.35;;;8.80;99.90;;;;;;6195343;28;20039;-77
2023/01/09 01:39:54;;;;;;;1.33;0.55;;;8.80;99.90;;;;;;6197200;28;20046;-76
2023/01/09 01:42:57;;;;;;;0.93;0.60;;;8.80;99.90;;;;;;6198308;28;20544;-77
2023/01/09 01:46:00;;;;;;;0.80;0.80;;;8.80;99.90;;;;;;6198843;28;20050;-76
2023/01/09 01:49:06;;;;;;;0.50;0.50;;;8.90;99.90;;;;;;6196742;28;20057;-76
2023/01/09 01:52:08;;;;;;;0.63;0.63;;;8.90;99.90;;;;;;6197932;28;20536;-76
2023/01/09 01:55:11;;;;;;;0.50;0.50;;;8.90;99.90;;;;;;6198068;28;20050;-77
2023/01/09 01:58:15;;;;;;;0.70;0.70;;;8.90;99.90;;;;;;6198152;28;20053;-77
2023/01/09 02:01:20;;;;;;;0.43;0.43;;;8.90;99.90;;;;;;6197646;28;20042;-77
2023/01/09 02:04:22;;;;;;;0.50;0.40;;;8.90;99.90;;;;;;6197794;28;20050;-76
2023/01/09 02:07:24;;;;;;;1.63;0.70;;;8.90;99.90;;;;;;6197386;28;20038;-76
2023/01/09 02:10:25;;;;;;;0.70;0.60;;;9.00;99.90;;;;;;6198186;28;20501;-77
2023/01/09 02:13:28;;;;;;;0.47;0.47;;;9.00;99.90;;;;;;6197723;28;20504;-77
2023/01/09 02:16:44;;;;;;;0.93;0.80;;;9.00;99.90;;;;;;6194323;28;20050;-77
2023/01/09 02:20:28;;;;;;;0.95;0.43;;;9.00;99.90;;;;;;6197481;28;20416;-77
2023/01/09 02:24:16;;;;;;;0.70;0.60;;;9.00;99.90;;;;;;6148649;28;20042;-76
2023/01/09 02:27:44;;;;;;;1.10;0.50;;;9.00;99.90;;;;;;6197211;28;20053;-78
2023/01/09 02:30:50;;;;;;;0.80;0.55;;;9.10;99.90;;;;;;6197352;28;20050;-75
2023/01/09 02:34:02;;;;;;;0.70;0.70;;;9.10;99.90;;;;;;6197968;28;20054;-76
2023/01/09 02:37:11;;;;;;;0.95;0.90;;;9.00;99.90;;;;;;6197335;28;20065;-76
2023/01/09 02:40:20;;;;;;;1.00;0.70;;;9.00;99.90;;;;;;6196624;28;20054;-77
2023/01/09 02:43:23;;;;;;;0.82;0.80;;;9.00;99.90;;;;;;6197291;28;20259;-77
2023/01/09 02:46:26;;;;;;;1.35;0.98;;;9.00;99.90;;;;;;6197832;28;20061;-76
2023/01/09 02:49:28;;;;;;;1.40;1.30;;;9.00;99.90;;;;;;6196669;28;20046;-76
2023/01/09 02:52:44;;;;;;;1.20;1.10;;;9.00;99.90;;;;;;6197332;28;20053;-76
2023/01/09 02:56:09;;;;;;;2.30;1.58;;;9.00;99.90;;;;;;6197348;28;20050;-75
2023/01/09 02:59:22;;;;;;;0.60;0.60;;;8.90;99.90;;;;;;6197983;28;20046;-75
2023/01/09 03:02:39;;;;;;;0.50;0.50;;;8.70;99.90;;;;;;6205570;28;20065;-75
2023/01/09 03:05:44;;;;;;;0.70;0.50;;;8.40;99.90;;;;;;6205720;28;20057;-75
2023/01/09 03:08:50;;;;;;;0.43;0.43;;;8.20;99.90;;;;;;6205154;28;20050;-74
2023/01/09 03:11:57;;;;;;;1.20;0.47;;;7.90;99.90;;;;;;6205793;28;20046;-74
2023/01/09 03:15:01;;;;;;;2.25;0.50;;;7.80;99.90;;;;;;6205077;28;20046;-75
2023/01/09 03:18:07;;;;;;;0.55;0.43;;;7.60;99.90;;;;;;6205002;28;20058;-76
2023/01/09 03:21:11;;;;;;;0.45;0.45;;;7.60;99.90;;;;;;6204691;28;20500;-75
2023/01/09 03:24:13;;;;;;;0.65;0.32;;;7.50;99.90;;;;;;6204880;28;20054;-76
2023/01/09 03:27:15;;;;;;;0.77;0.45;;;7.40;99.90;;;;;;6204490;28;20444;-76
2023/01/09 03:30:17;;;;;;;1.40;0.40;;;7.40;99.90;;;;;;6205067;28;20050;-76
2023/01/09 03:33:20;;;;;;;1.95;0.32;;;7.40;99.90;;;;;;6204300;28;20054;-76
2023/01/09 03:36:23;;;;;;;0.40;0.40;;;7.30;99.90;;;;;;6204201;28;20058;-76
2023/01/09 03:39:24;;;;;;;0.57;0.30;;;7.30;99.90;;;;;;6204270;28;20043;-76
2023/01/09 03:42:26;;;;;;;0.85;0.50;;;7.30;99.90;;;;;;6205145;28;20050;-76
2023/01/09 03:45:28;;;;;;;0.30;0.30;;;7.30;99.90;;;;;;6204835;28;20531;-76
2023/01/09 03:48:31;;;;;;;3.20;0.43;;;7.30;99.90;;;;;;6201814;28;20061;-76
2023/01/09 03:51:33;;;;;;;1.38;0.60;;;7.20;99.90;;;;;;6204820;28;20050;-76
2023/01/09 03:54:34;;;;;;;1.13;0.70;;;7.20;99.90;;;;;;6204831;28;20424;-76
2023/01/09 03:57:36;;;;;;;1.02;0.70;;;7.20;99.90;;;;;;6204224;28;20057;-75
2023/01/09 04:00:39;;;;;;;1.45;0.28;;;7.20;99.90;;;;;;6204360;28;20047;-76
2023/01/09 04:03:42;;;;;;;3.00;0.65;;;7.10;99.90;;;;;;6204551;28;20046;-77
2023/01/09 04:06:43;;;;;;;0.90;0.80;;;7.10;99.90;;;;;;6204451;28;20080;-75
2023/01/09 04:09:45;;;;;;;0.30;0.30;;;7.00;99.90;;;;;;6204445;28;20500;-76
2023/01/09 04:12:47;;;;;;;3.22;0.55;;;6.90;99.90;;;;;;6200245;28;20057;-76
2023/01/09 04:15:49;;;;;;;1.40;0.57;;;6.90;99.90;;;;;;6199916;28;20584;-77
2023/01/09 04:18:52;;;;;;;0.60;0.60;;;6.80;99.90;;;;;;6200270;28;20057;-76
2023/01/09 04:21:54;;;;;;;4.05;0.85;;;6.90;99.90;;;;;;6200703;28;20046;-76
2023/01/09 04:24:56;;;;;;;1.80;0.30;;;6.90;99.90;;;;;;6200297;28;20539;-75
2023/01/09 04:27:57;;;;;;;0.98;0.60;;;6.90;99.90;;;;;;6199770;28;20043;-77
2023/01/09 04:31:01;;;;;;;1.30;0.50;;;6.90;99.90;;;;;;6200034;28;20050;-75
2023/01/09 04:34:04;;;;;;;2.72;2.38;;;6.90;99.90;;;;;;6200213;28;20189;-77
2023/01/09 04:37:06;;;;;;;1.02;0.55;;;6.90;99.90;;;;;;6200118;28;20053;-75
2023/01/09 04:40:11;;;;;;;5.78;0.70;;;6.90;99.90;;;;;;6199574;28;20097;-76
2023/01/09 04:43:12;;;;;;;4.72;0.88;;;6.90;99.90;;;;;;6200223;28;20050;-76
2023/01/09 04:46:14;;;;;;;1.90;1.75;;;6.90;99.90;;;;;;6200229;28;20529;-75
2023/01/09 04:49:17;;;;;;;1.23;0.75;;;6.90;99.90;;;;;;6198984;28;20046;-75
2023/01/09 04:52:19;;;;;;;0.68;0.38;;;6.90;99.90;;;;;;6199803;28;20067;-76
2023/01/09 04:55:21;;;;;;;0.35;0.35;;;7.00;99.90;;;;;;6199779;28;20054;-76
2023/01/09 04:58:22;;;;;;;2.08;0.30;;;6.90;99.90;;;;;;6199978;28;20046;-76
2023/01/09 05:01:25;;;;;;;2.30;0.45;;;7.00;99.90;;;;;;6199029;28;20046;-77
2023/01/09 05:04:28;;;;;;;0.55;0.55;;;6.90;99.90;;;;;;6199192;28;20057;-76
2023/01/09 05:07:29;;;;;;;0.52;0.52;;;6.90;99.90;;;;;;6198513;28;20054;-76
2023/01/09 05:10:31;;;;;;;0.22;0.22;;;6.80;99.90;;;;;;6199486;28;20069;-77
2023/01/09 05:13:33;;;;;;;0.50;0.50;;;6.80;99.90;;;;;;6198712;28;20050;-77
2023/01/09 05:16:34;;;;;;;0.40;0.30;;;6.80;99.90;;;;;;6198884;28;20432;-76
2023/01/09 05:19:37;;;;;;;11.82;1.75;;;6.70;99.90;;;;;;6198611;28;20125;-77
2023/01/09 05:22:39;;;;;;;0.63;0.40;;;6.70;99.90;;;;;;6198453;28;20042;-77
2023/01/09 05:25:41;;;;;;;0.57;0.50;;;6.60;99.90;;;;;;6199531;28;20057;-76
2023/01/09 05:28:42;;;;;;;1.55;0.30;;;6.60;99.90;;;;;;6198437;28;20057;-76
2023/01/09 05:31:44;;;;;;;1.05;0.65;;;6.50;99.90;;;;;;6198730;28;20049;-77
2023/01/09 05:34:47;;;;;;;1.05;0.40;;;6.50;99.90;;;;;;6198650;28;20050;-76
2023/01/09 05:37:49;;;;;;;0.75;0.35;;;6.40;99.90;;;;;;6199100;28;20054;-77
2023/01/09 05:40:50;;;;;;;1.70;0.38;;;6.50;99.90;;;;;;6197831;28;20050;-77
2023/01/09 05:43:52;;;;;;;0.22;0.22;;;6.50;99.90;;;;;;6198358;28;20535;-77
2023/01/09 05:46:54;;;;;;;0.55;0.55;;;6.50;99.90;;;;;;6198068;28;20057;-76
2023/01/09 05:49:57;;;;;;;1.38;0.40;;;6.60;99.90;;;;;;6198512;28;20057;-77
2023/01/09 05:52:58;;;;;;;0.17;0.17;;;6.60;99.90;;;;;;6198077;28;20061;-76
2023/01/09 05:56:00;;;;;;;1.85;0.60;;;6.80;99.90;;;;;;6183225;28;20046;-77
2023/01/09 05:59:02;;;;;;;2.40;0.32;;;6.80;99.90;;;;;;6173330;28;20050;-77
2023/01/09 06:02:03;;;;;;;2.10;0.68;;;6.90;99.90;;;;;;6174440;28;20055;-77
2023/01/09 06:05:08;;;;;;;0.57;0.32;;;7.00;99.90;;;;;;6173906;28;20057;-76
2023/01/09 06:08:10;;;;;;;0.70;0.47;;;7.00;99.90;;;;;;6174195;28;20051;-76
2023/01/09 06:11:11;;;;;;;1.50;0.45;;;7.00;99.90;;;;;;6173546;28;20053;-76
2023/01/09 06:14:13;;;;;;;0.73;0.40;;;7.10;99.90;;;;;;6174222;28;20047;-77
2023/01/09 06:17:15;;;;;;;0.57;0.50;;;7.10;99.90;;;;;;6172895;28;20062;-77
2023/01/09 06:20:18;;;;;;;2.00;0.40;;;7.10;99.90;;;;;;6173892;28;20054;-77
2023/01/09 06:23:20;;;;;;;0.55;0.40;;;7.20;99.90;;;;;;6173763;28;20038;-76
2023/01/09 06:26:22;;;;;;;1.70;0.93;;;7.20;99.90;;;;;;6174089;28;20057;-76
2023/01/09 06:29:23;;;;;;;1.60;0.70;;;7.20;99.90;;;;;;6173039;28;20433;-77
2023/01/09 06:32:25;;;;;;;0.60;0.50;;;7.20;99.90;;;;;;6173073;28;20075;-77
2023/01/09 06:35:28;;;;;;;1.40;0.70;;;7.20;99.90;;;;;;6171964;28;20065;-77
2023/01/09 06:38:30;;;;;;;1.23;0.93;;;7.20;99.90;;;;;;6173076;28;20050;-77
2023/01/09 06:41:31;;;;;;;1.85;0.60;;;7.20;99.90;;;;;;6172860;28;20062;-77
2023/01/09 06:44:35;;;;;;;1.75;0.85;;;7.20;99.90;;;;;;6172981;28;20047;-77
2023/01/09 06:47:37;;;;;;;2.60;0.50;;;7.20;99.90;;;;;;6172947;28;20055;-76
2023/01/09 06:50:40;;;;;;;4.70;1.00;;;7.10;99.90;;;;;;6172836;28;20058;-77
2023/01/09 06:53:41;;;;;;;5.63;1.77;;;7.10;99.90;;;;;;6172952;28;20065;-77
2023/01/09 06:56:43;;;;;;;2.72;0.75;;;7.20;99.90;;;;;;6172595;28;20054;-77
2023/01/09 06:59:45;;;;;;;1.48;0.47;;;7.20;99.90;;;;;;6172372;28;20058;-77
2023/01/09 07:02:46;;;;;;;2.60;0.88;;;7.20;99.90;;;;;;6172889;28;20047;-77
2023/01/09 07:05:49;;;;;;;1.15;0.88;;;7.20;99.90;;;;;;6173090;28;20054;-77
2023/01/09 07:08:51;;;;;;;9.32;1.00;;;7.30;99.90;;;;;;6172488;28;20061;-77
2023/01/09 07:11:53;;;;;;;0.93;0.57;;;7.30;99.90;;;;;;6172230;28;20043;-77
2023/01/09 07:14:54;;;;;;;2.33;1.90;;;7.30;99.90;;;;;;6172929;28;20051;-77
2023/01/09 07:17:56;;;;;;;5.95;1.10;;;7.40;99.90;;;;;;6172838;28;20047;-77
2023/01/09 07:20:59;;;;;;;1.45;0.80;;;7.40;99.90;;;;;;6172574;28;20047;-77
2023/01/09 07:24:01;;;;;;;9.50;2.65;;;7.50;99.90;;;;;;6172503;28;20051;-76
2023/01/09 07:27:03;;;;;;;3.45;0.85;;;7.50;99.90;;;;;;6172199;28;20055;-77
2023/01/09 07:30:06;;;;;;;4.55;1.08;;;7.60;99.90;;;;;;6172783;28;20053;-77
2023/01/09 07:33:08;;;;;;;2.47;0.65;;;7.60;99.90;;;;;;6172571;28;20047;-77
2023/01/09 07:36:11;;;;;;;6.95;1.30;;;7.60;99.90;;;;;;6172781;28;20062;-77
2023/01/09 07:39:13;;;;;;;1.23;1.05;;;7.70;99.90;;;;;;6172108;28;20047;-77
2023/01/09 07:42:15;;;;;;;3.97;0.65;;;7.80;99.90;;;;;;6173060;28;20055;-77
2023/01/09 07:45:17;;;;;;;1.40;0.75;;;7.80;99.90;;;;;;6172369;28;20129;-77
2023/01/09 07:48:18;;;;;;;1.33;0.90;;;7.90;99.90;;;;;;6175542;28;20077;-77
2023/01/09 07:51:21;;;;;;;3.20;0.70;;;7.90;99.90;;;;;;6176371;28;20051;-77
2023/01/09 07:54:23;;;;;;;2.33;1.02;;;8.00;99.90;;;;;;6177529;28;20731;-77
2023/01/09 07:57:25;;;;;;;2.22;1.40;;;8.00;99.90;;;;;;6176306;28;20141;-77
2023/01/09 08:00:27;;;;;;;5.63;1.05;;;8.10;99.90;;;;;;6176498;28;20046;-77
2023/01/09 08:03:28;;;;;;;1.83;0.90;;;8.10;99.90;;;;;;6181948;28;20046;-77
2023/01/09 08:06:31;;;;;;;7.43;0.90;;;8.20;99.90;;;;;;6176948;28;20054;-77
2023/01/09 08:09:33;;;;;;;5.18;1.08;;;8.30;99.90;;;;;;6176087;28;20046;-77
2023/01/09 08:12:35;;;;;;;3.65;1.00;;;8.40;99.90;;;;;;6177842;28;20046;-77
2023/01/09 08:15:36;;;;;;;3.53;0.60;;;8.50;99.90;;;;;;6178536;28;20066;-77
2023/01/09 08:18:38;;;;;;;3.00;0.68;;;8.60;99.90;;;;;;6198397;28;20058;-78
2023/01/09 08:21:41;;;;;;;5.88;0.90;;;8.70;99.90;;;;;;6200965;28;20042;-78
2023/01/09 08:24:43;;;;;;;2.70;0.73;;;8.80;99.90;;;;;;6200244;28;20046;-78
2023/01/09 08:27:44;;;;;;;0.85;0.77;;;8.80;99.90;;;;;;6200075;28;20054;-78
2023/01/09 08:30:46;;;;;;;3.88;1.08;;;8.80;99.90;;;;;;6200195;28;20413;-77
2023/01/09 08:33:48;;;;;;;2.45;0.88;;;8.80;99.90;;;;;;6200971;28;20409;-77
2023/01/09 08:36:52;;;;;;;1.98;0.50;;;8.80;99.90;;;;;;6199601;28;20057;-78
2023/01/09 08:39:53;;;;;;;2.08;0.88;;;8.80;99.90;;;;;;6199935;28;20054;-79
2023/01/09 08:49:40;;;;;;;3.92;0.77;;;8.70;99.90;;;;;;6199725;28;20042;-78
2023/01/09 08:52:43;;;;;;;2.42;0.70;;;8.70;99.90;;;;;;6200007;28;20047;-78
2023/01/09 08:55:44;;;;;;;7.38;2.20;;;8.70;99.90;;;;;;6199769;28;20050;-77
2023/01/09 08:58:46;;;;;;;2.65;0.93;;;8.80;99.90;;;;;;6199377;28;20073;-77
2023/01/09 09:01:48;;;;;;;4.15;0.50;;;8.80;99.90;;;;;;6200486;28;20408;-78
2023/01/09 09:04:51;;;;;;;0.98;0.73;;;8.90;99.90;;;;;;6199956;28;20138;-77
2023/01/09 09:07:55;;;;;;;1.48;0.85;;;9.00;99.90;;;;;;6199396;28;20069;-77
2023/01/09 09:10:59;;;;;;;3.53;0.60;;;9.00;99.90;;;;;;6199477;28;20061;-77
2023/01/09 09:15:11;;;;;;;1.15;0.75;;;9.00;99.90;;;;;;6199765;28;20053;-78
2023/01/09 09:17:24;;;;;;;1.30;0.85;;;9.00;99.90;;;;;;6198603;28;20541;-78
2023/01/09 09:20:28;;;;;;;5.72;1.20;;;9.00;99.90;;;;;;6199054;28;20443;-78
2023/01/09 09:23:31;;;;;;;4.38;0.70;;;9.00;99.90;;;;;;6198627;28;20052;-77
2023/01/09 09:26:33;;;;;;;1.45;0.40;;;9.00;99.90;;;;;;6172698;28;20509;-77
2023/01/09 09:29:35;;;;;;;1.67;0.60;;;9.10;99.90;;;;;;6187373;28;20043;-77
2023/01/09 09:32:37;;;;;;;1.85;0.85;;;9.20;99.90;;;;;;6179049;28;20996;-78
2023/01/09 09:35:39;;;;;;;0.52;0.52;;;9.30;99.90;;;;;;6179493;28;20449;-78
2023/01/09 09:38:42;;;;;;;1.60;0.60;;;9.40;99.90;;;;;;6172838;28;20058;-78
2023/01/09 09:45:46;;;;;;;1.52;0.80;;;9.70;99.90;;;;;;6173331;28;20042;-76
2023/01/09 09:48:52;;;;;;;1.63;0.70;;;9.90;99.90;;;;;;6172197;28;20047;-76
2023/01/09 09:52:03;;;;;;;4.18;0.68;;;9.90;99.90;;;;;;6173165;28;20123;-76
2023/01/09 09:55:17;;;;;;;2.33;0.90;;;9.80;99.90;;;;;;6172853;28;20038;-77
2023/01/09 09:58:26;;;;;;;5.20;0.90;;;9.90;99.90;;;;;;6174402;28;20051;-76
2023/01/09 10:01:37;;;;;;;5.82;0.95;;;10.00;99.90;;;;;;6188544;28;20047;-77
2023/01/09 10:04:44;;;;;;;2.90;0.82;;;10.10;99.90;;;;;;6196518;28;20049;-75
2023/01/09 10:07:49;;;;;;;4.03;0.75;;;10.30;99.90;;;;;;6192761;28;20057;-76
2023/01/09 10:10:54;;;;;;;2.33;0.93;;;10.60;99.90;;;;;;6196029;28;20686;-76
2023/01/09 10:14:05;;;;;;;2.00;1.33;;;10.80;99.90;;;;;;6197245;28;20523;-76
2023/01/09 10:17:51;;;;;;;2.75;1.00;;;10.80;99.90;;;;;;6196344;28;20046;-77
2023/01/09 10:20:57;;;;;;;2.05;0.68;;;10.80;99.90;;;;;;6160966;28;20077;-76
2023/01/09 10:24:11;;;;;;;2.55;1.17;;;10.60;99.90;;;;;;6192768;28;20124;-76
2023/01/09 10:27:22;;;;;;;4.65;1.17;;;10.40;99.90;;;;;;6196307;28;20042;-77
2023/01/09 10:30:36;;;;;;;0.90;0.50;;;10.40;99.90;;;;;;6191941;28;20057;-76
2023/01/09 10:33:51;;;;;;;6.00;0.90;;;10.40;99.90;;;;;;6194350;28;20053;-77
2023/01/09 10:37:01;;;;;;;2.13;0.68;;;10.60;99.90;;;;;;6180834;28;20073;-76
2023/01/09 10:40:12;;;;;;;4.07;0.85;;;10.70;99.90;;;;;;6169292;28;20062;-76
2023/01/09 10:43:27;;;;;;;4.30;0.90;;;10.70;99.90;;;;;;6184235;28;20054;-77
2023/01/09 10:46:36;;;;;;;2.75;0.63;;;10.70;99.90;;;;;;6194640;28;20056;-76
2023/01/09 10:49:39;;;;;;;1.85;0.77;;;10.60;99.90;;;;;;6196179;28;20431;-76
2023/01/09 10:52:42;;;;;;;4.57;0.80;;;10.70;99.90;;;;;;6196278;28;20046;-76
2023/01/09 10:55:46;;;;;;;3.05;0.93;;;10.90;99.90;;;;;;6198124;28;20069;-76
2023/01/09 10:58:50;;;;;;;3.70;2.55;;;11.20;99.90;;;;;;6201809;28;20061;-77
2023/01/09 11:01:53;;;;;;;7.38;1.00;;;11.40;99.90;;;;;;6197708;28;20050;-76
2023/01/09 11:04:55;;;;;;;3.75;1.10;;;11.60;99.90;;;;;;6197153;28;20069;-77
2023/01/09 11:08:03;;;;;;;11.50;3.63;;;11.80;99.90;;;;;;6196992;28;20054;-76
2023/01/09 11:11:05;;;;;;;1.55;0.68;;;11.70;99.90;;;;;;6197191;28;20174;-76
2023/01/09 11:14:14;;;;;;;3.08;0.85;;;11.60;99.90;;;;;;6189055;28;20049;-76
2023/01/09 11:17:19;;;;;;;1.63;0.93;;;11.60;99.90;;;;;;6196968;28;20046;-76
2023/01/09 11:20:25;;;;;;;2.05;0.73;;;11.50;99.90;;;;;;6197411;28;20129;-76
2023/01/09 11:23:32;;;;;;;4.18;1.00;;;11.30;99.90;;;;;;6202141;28;20056;-77
2023/01/09 11:26:34;;;;;;;3.42;0.60;;;10.90;99.90;;;;;;6202247;28;20417;-77
2023/01/09 11:29:37;;;;;;;3.95;1.10;;;10.40;99.90;;;;;;6198232;28;20046;-77
2023/01/09 11:32:39;;;;;;;4.70;1.25;;;9.90;99.90;;;;;;6201753;28;20038;-77
2023/01/09 11:35:54;;;;;;;3.40;1.20;;;9.50;99.90;;;;;;6201745;28;20539;-76
2023/01/09 11:38:58;;;;;;;16.05;6.10;;;9.00;99.90;;;;;;6201354;28;20527;-75
2023/01/09 11:42:02;;;;;;;3.65;1.85;;;8.60;99.90;;;;;;6209569;28;20054;-76
2023/01/09 11:45:14;;;;;;;4.75;1.38;;;8.50;99.90;;;;;;6191785;28;20050;-76
2023/01/09 11:48:28;;;;;;;4.15;2.13;;;8.40;99.90;;;;;;6201663;28;20053;-75
2023/01/09 11:51:32;;;;;;;4.93;1.20;;;8.40;99.90;;;;;;6201478;28;20594;-75
2023/01/09 11:54:36;;;;;;;9.13;1.05;;;8.50;99.90;;;;;;6201865;28;20046;-76
2023/01/09 11:57:38;;;;;;;5.50;1.25;;;8.50;99.90;;;;;;6201205;28;20057;-76
2023/01/09 12:00:52;;;;;;;4.47;1.05;;;8.70;99.90;;;;;;6200955;28;20077;-76
2023/01/09 12:04:16;;;;;;;5.75;1.60;;;8.80;99.90;;;;;;6200317;28;20100;-76
2023/01/09 12:07:45;;;;;;;4.63;1.38;;;8.70;99.90;;;;;;6176816;28;20050;-76
2023/01/09 12:10:52;;;;;;;;;;;8.80;99.90;;;;;;6177340;28;20051;-76
2023/01/09 12:14:06;;;;;;;4.53;2.05;;;9.10;99.90;;;;;;6189894;28;19922;-76
2023/01/09 12:17:40;;;;;;;3.50;1.48;;;9.30;99.90;;;;;;6200729;28;20524;-76
2023/01/09 12:20:58;;;;;;;2.85;1.33;;;9.40;99.90;;;;;;6200725;28;20058;-76
2023/01/09 12:24:14;;;;;;;3.28;1.40;;;9.50;99.90;;;;;;6200822;28;20058;-76
2023/01/09 12:27:30;;;;;;;1.77;1.00;;;9.50;99.90;;;;;;6197602;28;20050;-76
2023/01/09 12:30:43;;;;;;;5.38;1.40;;;9.70;99.90;;;;;;6200719;28;20050;-76
2023/01/09 12:33:57;;;;;;;7.30;3.33;;;9.90;99.90;;;;;;6200058;28;20046;-76
2023/01/09 12:37:15;;;;;;;3.65;1.48;;;10.10;99.90;;;;;;6200325;28;20050;-76
2023/01/09 12:40:38;;;;;;;3.10;1.13;;;10.10;99.90;;;;;;6200390;28;20046;-76
2023/01/09 12:43:52;;;;;;;7.53;1.40;;;10.00;99.90;;;;;;6192991;28;20286;-77
2023/01/09 12:47:11;;;;;;;8.38;2.13;;;9.80;99.90;;;;;;6175991;28;20408;-77
2023/01/09 12:50:41;;;;;;;6.00;2.53;;;9.50;99.90;;;;;;6176427;28;20061;-77
2023/01/09 12:53:47;;;;;;;21.55;7.63;;;9.40;99.90;;;;;;6167692;28;20051;-76
2023/01/09 12:56:51;;;;;;;5.13;3.05;;;9.30;99.90;;;;;;6175942;28;20059;-76
2023/01/09 12:59:56;;;;;;;4.10;1.15;;;9.30;99.90;;;;;;6175534;28;20528;-75
2023/01/09 13:03:02;;;;;;;7.55;3.42;;;9.40;99.90;;;;;;6176192;28;20058;-76
2023/01/09 13:06:11;;;;;;;8.45;5.22;;;9.30;99.90;;;;;;6176199;28;20057;-76
2023/01/09 13:09:24;;;;;;;3.25;0.80;;;9.10;99.90;;;;;;6174658;28;20517;-77
2023/01/09 13:12:32;;;;;;;4.78;1.30;;;9.10;99.90;;;;;;6194817;28;20050;-77
2023/01/09 13:15:40;;;;;;;5.63;1.42;;;9.00;99.90;;;;;;6189009;28;20053;-77
2023/01/09 13:18:46;;;;;;;2.92;0.90;;;9.00;99.90;;;;;;6196865;28;20062;-77
2023/01/09 13:21:51;;;;;;;3.97;1.27;;;9.00;99.90;;;;;;6198089;28;20065;-77
2023/01/09 13:25:15;;;;;;;3.55;1.10;;;8.90;99.90;;;;;;6197437;28;20177;-78
2023/01/09 13:28:21;;;;;;;1.65;0.88;;;8.90;99.90;;;;;;6197349;28;20069;-78
2023/01/09 13:31:56;;;;;;;11.25;10.10;;;8.90;99.90;;;;;;6194321;28;20069;-78
2023/01/09 13:35:00;;;;;;;5.88;1.70;;;8.80;99.90;;;;;;6164194;28;20093;-78
2023/01/09 13:38:03;;;;;;;11.70;3.90;;;8.90;99.90;;;;;;6174296;28;20144;-77
2023/01/09 13:44:30;;;;;;;8.43;1.83;;;9.10;99.90;;;;;;6186589;28;20046;-78
2023/01/09 13:47:32;;;;;;;7.03;5.43;;;9.30;99.90;;;;;;6196439;28;20057;-78
2023/01/09 13:50:34;;;;;;;6.07;1.20;;;9.40;99.90;;;;;;6199122;28;20050;-78
2023/01/09 13:53:45;;;;;;;11.25;10.07;;;9.40;99.90;;;;;;6197342;28;20043;-78
2023/01/09 13:57:27;;;;;;;7.45;6.55;;;9.50;99.90;;;;;;6198760;28;20046;-77
2023/01/09 14:00:48;;;;;;;29.52;26.75;;;9.40;99.90;;;;;;6196306;28;20050;-78
2023/01/09 14:04:36;;;;;;;4.28;2.08;;;9.40;99.90;;;;;;6195813;28;20042;-78
2023/01/09 14:07:38;;;;;;;21.33;15.30;;;9.30;99.90;;;;;;6172283;28;20054;-77
2023/01/09 14:10:48;;;;;;;10.00;8.52;;;9.10;99.90;;;;;;6180557;28;20394;-78
2023/01/09 14:14:02;;;;;;;29.65;25.85;;;9.00;99.90;;;;;;6189919;28;20047;-77
2023/01/09 14:17:16;;;;;;;76.40;42.45;;;8.90;99.90;;;;;;6180948;28;20050;-77
2023/01/09 14:20:27;;;;;;;23.52;20.40;;;8.70;99.90;;;;;;6196179;28;20061;-76
2023/01/09 14:23:32;;;;;;;4.28;3.75;;;8.30;99.90;;;;;;6193326;28;20427;-77
2023/01/09 14:26:46;;;;;;;5.90;4.18;;;7.60;99.90;;;;;;6196559;28;20057;-77
2023/01/09 14:29:48;;;;;;;3.80;2.08;;;7.10;99.90;;;;;;6195609;28;20053;-76
2023/01/09 14:32:56;;;;;;;2.85;1.25;;;6.80;99.90;;;;;;6196736;28;20051;-76
2023/01/09 14:36:09;;;;;;;2.22;1.38;;;6.60;99.90;;;;;;6197284;28;20054;-79
2023/01/09 14:39:13;;;;;;;3.67;1.10;;;6.50;99.90;;;;;;6197994;28;20050;-79
2023/01/09 14:42:21;;;;;;;3.45;1.42;;;6.30;99.90;;;;;;6201674;28;20046;-79
2023/01/09 14:45:25;;;;;;;4.75;0.68;;;6.30;99.90;;;;;;6174291;28;20051;-79
2023/01/09 14:48:28;;;;;;;4.50;1.15;;;6.30;99.90;;;;;;6179648;28;20056;-79
2023/01/09 14:51:34;;;;;;;1.25;0.73;;;6.20;99.90;;;;;;6213486;28;20065;-78
2023/01/09 14:54:39;;;;;;;1.27;0.57;;;6.20;99.90;;;;;;6199028;28;20057;-76
2023/01/09 14:57:42;;;;;;;8.43;2.22;;;6.20;99.90;;;;;;6197441;28;20530;-76
2023/01/09 15:00:51;;;;;;;4.82;1.27;;;6.20;99.90;;;;;;6198903;28;20424;-76
2023/01/09 15:03:59;;;;;;;4.43;2.30;;;6.30;99.90;;;;;;6196854;28;20047;-77
2023/01/09 15:07:01;;;;;;;18.15;9.93;;;6.30;99.90;;;;;;6196518;28;20053;-77
2023/01/09 15:10:04;;;;;;;18.58;11.88;;;6.30;99.90;;;;;;6193414;28;20053;-77
2023/01/09 15:13:12;;;;;;;0.80;0.80;;;6.40;99.90;;;;;;6183674;28;20576;-77
2023/01/09 15:16:18;;;;;;;1.27;1.00;;;6.40;99.90;;;;;;6177679;28;20499;-77
2023/01/09 15:19:20;;;;;;;2.20;0.75;;;6.40;99.90;;;;;;6171958;28;20057;-78
2023/01/09 15:22:27;;;;;;;4.10;0.90;;;6.50;99.90;;;;;;6174837;28;20046;-77
2023/01/09 15:25:30;;;;;;;2.23;0.50;;;6.50;99.90;;;;;;6172107;28;20062;-76
2023/01/09 15:28:33;;;;;;;2.97;1.33;;;6.50;99.90;;;;;;6171493;28;20313;-76
2023/01/09 15:31:37;;;;;;;8.27;1.42;;;6.50;99.90;;;;;;6174300;28;20527;-76
2023/01/09 15:34:39;;;;;;;2.58;1.02;;;6.50;99.90;;;;;;6172369;28;20051;-76
2023/01/09 15:37:41;;;;;;;6.47;2.00;;;6.60;99.90;;;;;;6175423;28;20061;-78
2023/01/09 15:40:44;;;;;;;1.77;0.80;;;6.50;99.90;;;;;;6173336;28;20062;-76
2023/01/09 15:43:47;;;;;;;1.23;0.73;;;6.50;99.90;;;;;;6188613;28;20053;-75
2023/01/09 15:46:50;;;;;;;4.35;1.55;;;6.40;99.90;;;;;;6171696;28;20073;-78
2023/01/09 15:49:52;;;;;;;12.35;4.95;;;6.40;99.90;;;;;;6170769;28;20070;-76
2023/01/09 15:52:56;;;;;;;18.73;8.25;;;6.40;99.90;;;;;;6172763;28;20039;-77
2023/01/09 15:56:18;;;;;;;3.72;1.83;;;6.40;99.90;;;;;;6172242;28;20054;-77
2023/01/09 15:59:26;;;;;;;5.97;2.95;;;6.40;99.90;;;;;;6171558;28;20046;-76
2023/01/09 16:05:56;;;;;;;4.78;3.15;;;6.40;99.90;;;;;;6173970;28;20066;-78
2023/01/09 16:08:59;;;;;;;6.00;2.05;;;6.40;99.90;;;;;;6178624;28;20038;-78
2023/01/09 16:12:03;;;;;;;1.20;0.77;;;6.40;99.90;;;;;;6186850;28;20054;-80
2023/01/09 16:15:15;;;;;;;0.35;0.35;;;6.40;99.90;;;;;;6189231;28;20047;-77
2023/01/09 16:18:22;;;;;;;4.53;1.40;;;6.30;99.90;;;;;;6178355;28;20053;-77
2023/01/09 16:21:35;;;;;;;2.17;0.80;;;6.30;99.90;;;;;;6179893;28;20101;-79
2023/01/09 16:24:40;;;;;;;2.50;1.20;;;6.30;99.90;;;;;;6203847;28;20064;-75
2023/01/09 16:27:42;;;;;;;1.63;0.70;;;6.30;99.90;;;;;;6203049;28;20615;-78
2023/01/09 16:30:53;;;;;;;1.55;0.70;;;6.40;99.90;;;;;;6203245;28;20692;-78
2023/01/09 16:33:58;;;;;;;4.75;0.90;;;6.40;99.90;;;;;;6204224;28;20049;-78
2023/01/09 16:37:01;;;;;;;3.20;1.48;;;6.40;99.90;;;;;;6202351;28;20393;-77
2023/01/09 16:40:28;;;;;;;2.67;1.15;;;6.40;99.90;;;;;;6200537;28;20708;-78